Highlands Ranch, CO (80129)

4:53 PM MDT on May 06, 2015 (GMT -0600)
Grant's PWS | | Change Station
CLOSE
Current Station
Personal Weather Station
Location: Castle Rock, CO
Elevation: 6109 ft
Nearby Weather Stations

Elev 6109 ft 39.41 °N, 104.92 °W | Updated 0 second ago

Overcast
Overcast
57.2 °F
Feels Like 57.2 °F
N
0.0
Wind Variable Wind from WNW
Gusts 0.2 mph

Today
High -- | Low -- °F
--% Chance of Precip.
Yesterday
High -- | Low -- °F
Precip. -- in
5:55 AM 7:58 PM
Waning Gibbous, 92% visible
Pressure 29.60 in
Visibility 10.0 miles
Clouds Few 6500 ft
Scattered Clouds 10000 ft
Mostly Cloudy 12000 ft
Overcast 14000 ft
Dew Point 49 °F
Humidity 73%
Rainfall 0.30 in
Snow Depth Not available.
UV 2 out of 12
Pollen 4.50 out of 12
Air Quality Not available.
Flu Activity Sporadic
METAR KAPA 062153Z COR 08006KT 10SM FEW065 SCT100 BKN120 OVC140 15/08 A2971 RMK AO2 SLP023 OCNL LTGICCG DSNT SE-S CB DSNT SE-S MOV E SHRA DSNT SE-S T01500078

More Conditions Fewer Conditions

Pressure 29.60 in
Visibility 10.0 miles
Clouds Few 6500 ft
Scattered Clouds 10000 ft
Mostly Cloudy 12000 ft
Overcast 14000 ft
Dew Point 49 °F
Humidity 73%
Rainfall 0.30 in
Snow Depth Not available.
UV 2 out of 12
Pollen 4.50 out of 12
Air Quality Not available.
Flu Activity Sporadic
METAR KAPA 062153Z COR 08006KT 10SM FEW065 SCT100 BKN120 OVC140 15/08 A2971 RMK AO2 SLP023 OCNL LTGICCG DSNT SE-S CB DSNT SE-S MOV E SHRA DSNT SE-S T01500078

More Conditions Fewer Conditions

Nowcast | as of 3:51 PM MDT on May 6, 2015

Scattered showers and a few thunderstorms will continue over the foothills and move east across the urban corridor and adjacent plains through late afternoon. Some of the showers will produce brief rain and wind gusts to 30 mph. Rainfall rates will be up to a quarter inch in less than an hour with the heavier showers.

×

10-Day Weather Forecast

Almanac

Astronomy

May. 06, 2015 Rise Set
Actual Time
Civil Twilight
Nautical Twilight
Astronomical Twilight
Moon
Length of Visible Light
Length of Day
Tomorrow will be .
, % of the Moon is Illuminated

Today's Extremes

State Highs State Lows

Community

WunderPhotos

Upload Photos

1,819,034 photos uploaded!

WunderBlogs® & News

Nearby

Air Quality

  Air Quality AQ Index Pollutant
Not available.

Snow Depth

Station Depth Elevation

Earthquake Activity

City Distance Mag. Time & Date
Minimum magnitude displayed is 2.5.

Coastal Water Temperatures

Place Temperature

Stations

Nearby Weather Stations

Station Location Temp. Windchill Dew Point Humidity Wind Precip. Elev Updated Type